Latest Weather Observations for Clermont Airport

IDQ60801

Issued at 6:02 pm EST Friday 15 December 2017 (issued every 30 minutes, with the page automatically refreshed every 10 minutes)

About weather observations | Map of weather stations | Latest weather observations for QLD | Other Formats
Station Details ID: 035124 Name: CLERMONT AIRPORT Lat: -22.78 Lon: 147.62 Height: 270.27 m
Data from the previous 72 hours. | See also: Recent months at Clermont Airport
Date/Time
EST
Temp
°C
App
Temp
°C
Dew
Point
°C
Rel
Hum
%
Delta-T
°C
Wind Press
QNH
hPa
Press
MSL
hPa
Rain since
9am
mm
Dir  Spd
km/h
Gust
km/h
Spd
kts
Gust
kts
15/06:00pm 33.4 31.0 10.1 24 13.6 SE 13 19 7 10 1009.1 1007.3 0.0
15/05:30pm 34.1 31.7 10.0 23 14.1 ESE 13 28 7 15 1008.8 1007.0 0.0
15/05:00pm 34.0 31.0 9.3 22 14.3 ESE 15 24 8 13 1008.6 1006.8 0.0
15/04:30pm 34.8 32.7 9.9 22 14.5 E 11 20 6 11 1008.4 1006.6 0.0
15/04:00pm 34.5 32.6 9.0 21 14.7 ESE 9 24 5 13 1008.4 1006.6 0.0
15/03:30pm 34.9 32.1 8.6 20 15.0 ESE 13 19 7 10 1008.4 1006.6 0.0
15/03:00pm 34.7 32.5 9.2 21 14.7 S 11 24 6 13 1008.6 1006.8 0.0
15/02:30pm 34.3 31.6 8.8 21 14.6 SSE 13 22 7 12 1009.0 1007.2 0.0
15/02:00pm 34.2 32.2 8.8 21 14.6 E 9 24 5 13 1009.1 1007.3 0.0
15/01:30pm 34.4 31.7 8.9 21 14.6 ESE 13 22 7 12 1009.4 1007.6 0.0
15/01:00pm 33.5 31.1 11.4 26 13.1 ESE 15 26 8 14 1009.9 1008.1 0.0
15/12:30pm 33.0 32.0 10.9 26 13.0 ESE 7 17 4 9 1010.5 1008.6 0.0
15/12:00pm 32.3 30.5 12.0 29 12.1 E 13 20 7 11 1010.9 1009.0 0.0
15/11:30am 31.6 29.7 12.9 32 11.3 E 15 26 8 14 1011.4 1009.5 0.0
15/11:00am 30.8 30.1 13.1 34 10.7 S 9 24 5 13 1011.8 1010.0 0.0
15/10:30am 30.0 29.0 13.3 36 10.1 ESE 11 19 6 10 1012.2 1010.4 0.0
15/10:00am 29.4 29.0 15.1 41 8.8 NE 11 17 6 9 1012.6 1010.8 0.0
15/09:30am 28.6 28.4 14.8 43 8.5 E 9 17 5 9 1012.9 1011.1 0.0
15/09:00am 27.4 28.0 15.7 48 7.2 NNE 7 13 4 7 1013.3 1011.5 0.0
15/08:30am 26.8 27.4 15.8 51 6.8 ENE 7 15 4 8 1013.3 1011.5 0.0
15/08:00am 26.3 27.2 16.5 54 6.1 NE 7 17 4 9 1013.3 1011.5 0.0
15/07:30am 24.7 25.8 16.7 61 5.0 NE 6 13 3 7 1013.4 1011.6 0.0
15/07:00am 23.3 24.4 17.1 68 3.9 NE 7 11 4 6 1013.3 1011.5 0.0
15/06:30am 22.4 23.7 17.1 72 3.3 ENE 6 9 3 5 1013.1 1011.3 0.0
15/06:00am 20.8 23.0 16.6 77 2.6 CALM 0 4 0 2 1012.9 1011.1 0.0
15/05:30am 19.2 20.3 15.7 80 2.1 NW 4 6 2 3 1012.6 1010.8 0.0
15/05:00am 19.9 20.6 15.7 77 2.5 NNW 6 6 3 3 1012.0 1010.2 0.0
15/04:30am 19.9 20.6 15.7 77 2.5 NNW 6 7 3 4 1011.7 1009.9 0.0
15/04:00am 21.0 22.0 16.4 75 2.8 N 6 7 3 4 1011.3 1009.4 0.0
15/03:30am 21.1 22.4 16.1 73 3.0 N 4 6 2 3 1011.1 1009.2 0.0
15/03:00am 21.1 22.4 16.1 73 3.0 N 4 7 2 4 1010.8 1008.9 0.0
15/02:30am 21.7 22.6 16.0 70 3.5 N 6 9 3 5 1010.6 1008.7 0.0
15/02:00am 21.9 23.7 15.5 67 3.9 CALM 0 2 0 1 1010.4 1008.5 0.0
15/01:30am 23.0 24.3 16.1 65 4.2 ENE 4 6 2 3 1010.4 1008.5 0.0
15/01:00am 23.4 24.2 16.4 64 4.3 NE 7 13 4 7 1010.5 1008.6 0.0
15/12:30am 23.9 24.8 16.7 64 4.5 ENE 7 17 4 9 1010.7 1008.8 0.0
15/12:00am 24.4 25.4 16.4 61 5.0 ENE 6 11 3 6 1011.1 1009.2 0.0
 
Date/Time
EST
Temp
°C
App
Temp
°C
Dew
Point
°C
Rel
Hum
%
Delta-T
°C
Wind Press
QNH
hPa
Press
MSL
hPa
Rain since
9am
mm
Dir  Spd
km/h
Gust
km/h
Spd
kts
Gust
kts
14/11:30pm 24.9 25.4 16.6 60 5.2 NE 9 17 5 9 1011.1 1009.2 0.0
14/11:00pm 24.6 24.7 13.8 51 6.4 NNE 6 11 3 6 1011.2 1009.3 0.0
14/10:30pm 26.1 26.1 14.2 48 7.2 NE 7 13 4 7 1011.2 1009.3 0.0
14/10:00pm 26.2 24.7 9.1 34 9.5 ENE 7 13 4 7 1011.2 1009.3 0.0
14/09:30pm 25.2 24.1 6.9 31 9.7 ENE 2 4 1 2 1010.9 1009.0 0.0
14/09:00pm 26.4 24.9 6.9 29 10.4 E 4 7 2 4 1010.8 1008.9 0.0
14/08:30pm 28.8 27.4 7.4 26 11.7 SSE 4 6 2 3 1010.6 1008.7 0.0
14/08:00pm 29.8 27.8 7.1 24 12.4 SSE 7 11 4 6 1010.3 1008.4 0.0
14/07:30pm 30.8 28.8 7.3 23 12.9 SSE 7 11 4 6 1009.9 1008.1 0.0
14/07:00pm 31.6 29.4 8.0 23 13.2 SE 9 17 5 9 1009.6 1007.8 0.0
14/06:30pm 32.5 30.5 8.7 23 13.5 SE 9 19 5 10 1009.1 1007.3 0.0
14/06:00pm 33.3 31.5 9.4 23 13.8 SE 9 15 5 8 1008.6 1006.8 0.0
14/05:30pm 33.5 30.6 8.2 21 14.3 SE 13 26 7 14 1008.4 1006.6 0.0
14/05:00pm 34.6 32.7 9.1 21 14.7 SSE 9 20 5 11 1008.0 1006.1 0.0
14/04:30pm 34.7 32.6 8.4 20 15.0 SSE 9 19 5 10 1007.9 1006.0 0.0
14/04:00pm 34.5 32.0 8.3 20 14.9 SE 11 20 6 11 1007.8 1005.9 0.0
14/03:30pm 34.6 32.1 8.4 20 14.9 ESE 11 20 6 11 1008.0 1006.1 0.0
14/03:00pm 34.5 32.0 8.3 20 14.9 E 11 17 6 9 1008.3 1006.5 0.0
14/02:30pm 34.6 32.7 9.1 21 14.7 SSE 9 17 5 9 1008.6 1006.8 0.0
14/02:00pm 33.5 31.3 9.5 23 13.9 SSE 11 33 6 18 1009.0 1007.2 0.0
14/01:30pm 33.4 31.4 10.1 24 13.5 SSE 11 22 6 12 1009.5 1007.7 0.0
14/01:00pm 33.2 32.2 11.1 26 13.1 S 7 22 4 12 1009.9 1008.1 0.0
14/12:30pm 32.8 30.9 11.9 28 12.5 E 13 22 7 12 1010.4 1008.5 0.0
14/12:00pm 31.1 29.5 11.5 30 11.5 S 11 24 6 13 1010.8 1008.9 0.0
14/11:30am 31.5 29.6 11.8 30 11.7 SE 13 22 7 12 1011.4 1009.5 0.0
14/11:00am 31.0 30.3 13.3 34 10.7 SE 9 19 5 10 1011.9 1010.1 0.0
14/10:30am 29.9 28.2 12.3 33 10.4 S 13 22 7 12 1012.4 1010.6 0.0
14/10:00am 29.4 29.2 14.8 41 9.0 S 9 15 5 8 1012.7 1010.9 0.0
14/09:30am 28.3 28.8 14.9 44 8.2 S 6 11 3 6 1013.0 1011.2 0.0
14/09:00am 28.2 28.7 15.5 46 7.9 E 7 13 4 7 1013.2 1011.4 0.0
14/08:30am 27.6 27.7 15.6 48 7.4 ESE 9 15 5 8 1013.2 1011.4 0.0
14/08:00am 27.1 28.2 16.7 53 6.5 E 6 15 3 8 1013.4 1011.6 0.0
14/07:30am 25.1 26.3 16.8 60 5.2 NNE 6 11 3 6 1013.4 1011.6 0.0
14/07:00am 23.7 24.8 16.7 65 4.3 ENE 6 11 3 6 1013.3 1011.5 0.0
14/06:30am 22.9 24.8 16.7 68 3.8 E 2 6 1 3 1013.2 1011.4 0.0
14/06:00am 20.4 22.3 15.8 75 2.8 CALM 0 0 0 0 1013.2 1011.4 0.0
14/05:30am 20.2 21.6 16.4 79 2.3 E 4 6 2 3 1012.9 1011.1 0.0
14/05:00am 20.5 22.8 16.7 79 2.3 CALM 0 0 0 0 1012.7 1010.9 0.0
14/04:30am 20.0 21.2 16.0 78 2.4 S 4 6 2 3 1012.5 1010.7 0.0
14/04:00am 21.1 22.8 16.3 74 2.9 ESE 2 6 1 3 1012.3 1010.5 0.0
14/03:30am 21.5 23.6 16.2 72 3.2 CALM 0 6 0 3 1012.3 1010.5 0.0
14/03:00am 21.9 23.5 16.0 69 3.6 NE 2 9 1 5 1012.1 1010.3 0.0
14/02:30am 22.3 23.1 16.3 69 3.7 NE 7 11 4 6 1012.1 1010.3 0.0
14/02:00am 22.7 23.8 16.7 69 3.7 NE 6 11 3 6 1012.2 1010.4 0.0
14/01:30am 23.1 24.3 16.9 68 3.8 NE 6 13 3 7 1012.2 1010.4 0.0
14/01:00am 23.2 24.3 16.7 67 4.0 NE 6 11 3 6 1012.5 1010.7 0.0
14/12:30am 23.8 24.7 16.6 64 4.5 NE 7 15 4 8 1012.7 1010.9 0.0
14/12:00am 24.3 24.6 16.0 60 5.1 NE 9 17 5 9 1013.1 1011.3 0.0
 
Date/Time
EST
Temp
°C
App
Temp
°C
Dew
Point
°C
Rel
Hum
%
Delta-T
°C
Wind Press
QNH
hPa
Press
MSL
hPa
Rain since
9am
mm
Dir  Spd
km/h
Gust
km/h
Spd
kts
Gust
kts
13/11:30pm 24.6 24.7 14.4 53 6.1 NE 7 13 4 7 1013.2 1011.4 0.0
13/11:00pm 24.9 24.6 12.8 47 7.1 NE 6 11 3 6 1013.4 1011.6 0.0
13/10:30pm 25.2 24.3 11.4 42 7.9 NE 7 9 4 5 1013.3 1011.5 0.0
13/10:00pm 25.2 24.3 10.6 40 8.2 ENE 6 7 3 4 1013.2 1011.4 0.0
13/09:30pm 25.7 25.3 9.9 37 8.8 E 2 4 1 2 1012.7 1010.9 0.0
13/09:00pm 26.2 25.9 10.0 36 9.1 E 2 6 1 3 1012.3 1010.5 0.0
13/08:30pm 27.1 26.5 9.0 32 10.0 E 2 6 1 3 1012.0 1010.2 0.0
13/08:00pm 28.3 26.7 8.1 28 11.1 E 6 9 3 5 1011.6 1009.8 0.0
13/07:30pm 28.8 27.3 8.5 28 11.3 E 6 9 3 5 1011.3 1009.4 0.0
13/07:00pm 29.9 28.3 6.5 23 12.6 E 4 13 2 7 1011.1 1009.2 0.0
13/06:30pm 31.2 28.6 6.3 21 13.5 ESE 9 17 5 9 1010.8 1008.9 0.0
13/06:00pm 32.1 29.3 7.0 21 13.8 ESE 11 22 6 12 1010.4 1008.5 0.0
13/05:30pm 32.5 28.9 6.7 20 14.2 SE 15 26 8 14 1010.1 1008.3 0.0
13/05:00pm 32.9 29.9 7.7 21 14.1 ESE 13 22 7 12 1009.9 1008.1 0.0
13/04:30pm 32.8 29.6 8.3 22 13.8 ESE 15 32 8 17 1009.7 1007.9 0.0
13/04:00pm 32.8 29.0 7.6 21 14.1 SE 17 24 9 13 1009.6 1007.8 0.0
13/03:30pm 33.2 30.0 8.6 22 14.0 SSE 15 20 8 11 1009.7 1007.9 0.0
13/03:00pm 32.9 30.0 9.7 24 13.4 ESE 15 32 8 17 1009.9 1008.1 0.0
13/02:30pm 32.5 28.5 10.5 26 12.8 SE 22 35 12 19 1010.6 1008.7 0.0
13/02:00pm 32.6 30.1 12.3 29 12.2 ESE 17 30 9 16 1011.0 1009.1 0.0
13/01:30pm 31.8 28.8 12.1 30 11.7 SE 19 30 10 16 1011.4 1009.5 0.0
13/01:00pm 31.1 28.3 11.5 30 11.5 SE 17 33 9 18 1011.8 1010.0 0.0
13/12:30pm 31.7 29.9 12.0 30 11.7 SSE 13 26 7 14 1012.2 1010.4 0.0
13/12:00pm 31.2 29.1 12.5 31 11.2 SE 15 26 8 14 1012.8 1011.0 0.0
13/11:30am 29.6 27.8 13.4 37 9.8 SSE 15 30 8 16 1013.6 1011.8 0.0
13/11:00am 28.4 26.8 13.9 41 8.8 ESE 15 30 8 16 1014.0 1012.2 0.0
13/10:30am 27.6 25.4 13.2 41 8.6 SE 17 26 9 14 1014.5 1012.6 0.0
13/10:00am 27.2 25.6 14.9 47 7.5 SE 17 28 9 15 1014.9 1013.1 0.0
13/09:30am 26.5 24.9 14.9 49 7.1 SE 17 33 9 18 1015.3 1013.5 0.0
13/09:00am 26.0 25.0 15.7 53 6.3 ESE 15 24 8 13 1015.6 1013.8 0.0
13/08:30am 25.6 26.0 16.2 56 5.8 ENE 9 17 5 9 1015.6 1013.8 0.0
13/08:00am 23.9 22.8 15.4 59 5.2 E 15 26 8 14 1015.6 1013.8 0.0
13/07:30am 23.9 24.3 16.2 62 4.7 E 9 19 5 10 1015.5 1013.7 0.0
13/07:00am 23.1 23.7 15.9 64 4.4 ESE 7 13 4 7 1015.4 1013.6 0.0
13/06:30am 21.6 22.4 15.9 70 3.5 SSE 6 9 3 5 1015.0 1013.2 0.0
13/06:00am 20.4 21.2 15.8 75 2.8 SSE 6 7 3 4 1014.6 1012.7 0.0
13/05:30am 17.4 18.1 14.5 83 1.7 SW 4 6 2 3 1014.2 1012.3 0.0
13/05:00am 18.9 20.5 15.0 78 2.3 CALM 0 4 0 2 1013.6 1011.8 0.0
13/04:30am 19.8 21.8 15.9 78 2.4 CALM 0 0 0 0 1013.4 1011.6 0.0
13/04:00am 19.9 21.3 15.3 75 2.7 SE 2 6 1 3 1013.4 1011.6 0.0
13/03:30am 20.5 22.5 15.9 75 2.8 CALM 0 2 0 1 1013.5 1011.7 0.0
13/03:00am 20.8 22.7 15.8 73 3.0 CALM 0 6 0 3 1013.4 1011.6 0.0
13/02:30am 21.3 22.8 15.6 70 3.4 ESE 2 4 1 2 1013.4 1011.6 0.0
13/02:00am 21.7 22.8 15.5 68 3.7 ENE 4 6 2 3 1013.4 1011.6 0.0
13/01:30am 22.0 22.9 15.1 65 4.1 E 4 9 2 5 1013.4 1011.6 0.0
13/01:00am 22.6 23.7 15.7 65 4.2 ENE 4 9 2 5 1013.5 1011.7 0.0
13/12:30am 23.2 23.8 15.8 63 4.5 NE 7 13 4 7 1013.5 1011.7 0.0
13/12:00am 23.9 23.5 16.2 62 4.7 NE 13 26 7 14 1013.5 1011.7 0.0
 
Date/Time
EST
Temp
°C
App
Temp
°C
Dew
Point
°C
Rel
Hum
%
Delta-T
°C
Wind Press
QNH
hPa
Press
MSL
hPa
Rain since
9am
mm
Dir  Spd
km/h
Gust
km/h
Spd
kts
Gust
kts
12/11:30pm 24.5 24.1 16.2 60 5.1 NE 13 26 7 14 1013.8 1012.0 0.0
12/11:00pm 24.9 25.6 16.1 58 5.4 NE 7 13 4 7 1013.7 1011.9 0.0
12/10:30pm 25.4 24.9 14.8 52 6.4 NE 11 20 6 11 1013.6 1011.8 0.0
12/10:00pm 26.0 24.4 10.2 37 8.9 ENE 9 19 5 10 1013.6 1011.8 0.0
12/09:30pm 26.1 24.9 9.5 35 9.2 ESE 6 13 3 7 1013.4 1011.6 0.0
12/09:00pm 26.9 25.7 9.7 34 9.6 ESE 6 11 3 6 1013.3 1011.5 0.0
12/08:30pm 27.6 26.4 10.3 34 9.8 ESE 7 15 4 8 1013.1 1011.3 0.0
12/08:00pm 28.2 27.0 10.4 33 10.2 ESE 7 17 4 9 1013.0 1011.2 0.0
12/07:30pm 28.9 27.9 11.0 33 10.4 ESE 7 13 4 7 1012.8 1011.0 0.0
12/07:00pm 29.7 28.0 11.2 31 10.8 ESE 11 20 6 11 1012.7 1010.9 0.0
12/06:30pm 30.6 28.9 11.1 30 11.4 ESE 11 22 6 12 1012.4 1010.6 0.0

Other Formats:

Comma delimited format used in spreadsheet applications
http://www.bom.gov.au/fwo/IDQ60801/IDQ60801.94395.axf

JavaScript Object Notation format (JSON) in row-major order
http://www.bom.gov.au/fwo/IDQ60801/IDQ60801.94395.json